FW8876 Weather Reports


time (UTC)temp
F
wind
direction
speed
knots
gust
knots
rain 1hr
in
rain 24hr
in
rain mn
in
humidity
%
barometer
mb
20260507143041 76 0.0 0.0 0.00 0.00 0.00 38 1010.3
20260507142043 75 0.0 0.0 0.00 0.00 0.00 40 1010.3
20260507141020 73 0.0 0.0 0.00 0.00 0.00 42 1010.2
20260507140022 71 0.0 0.0 0.00 0.00 0.00 43 1010.2
20260507135019 67 0.0 0.0 0.00 0.00 0.00 46 1010.1
20260507134021 63 0.0 0.0 0.00 0.00 0.00 50 1010.0
20260507133023 60 0.0 0.0 0.00 0.00 0.00 53 1009.9
20260507132045 59 0.0 0.0 0.00 0.00 0.00 55 1009.8
20260507131022 59 0.0 0.0 0.00 0.00 0.00 56 1009.7
20260507130024 58 0.0 0.0 0.00 0.00 0.00 55 1009.5
20260507125026 59 0.0 0.0 0.00 0.00 0.00 54 1009.5
20260507124028 59 0.0 0.0 0.00 0.00 0.00 55 1009.5
20260507123026 59 0.0 0.0 0.00 0.00 0.00 55 1009.5
20260507122028 59 0.0 0.0 0.00 0.00 0.00 54 1009.6
20260507121044 59 0.0 0.0 0.00 0.00 0.00 55 1009.5
20260507120020 59 0.0 0.0 0.00 0.00 0.00 53 1009.8
20260507115057 59 0.0 0.0 0.00 0.00 0.00 54 1009.7
20260507114039 60 0.0 0.0 0.00 0.00 0.00 54 1009.8
20260507113021 60 0.0 0.0 0.00 0.00 0.00 54 1010.0
20260507112043 60 0.0 0.0 0.00 0.00 0.00 51 1010.0
20260507111026 60 0.0 0.0 0.00 0.00 0.00 52 1009.9
20260507110048 60 0.0 0.0 0.00 0.00 0.00 52 1010.1
20260507105029 61 0.0 0.0 0.00 0.00 0.00 51 1010.0
20260507104032 61 0.0 0.0 0.00 0.00 0.00 51 1010.1
20260507103036 61 0.0 0.0 0.00 0.00 0.00 50 1010.3
20260507102018 61 0.0 0.0 0.00 0.00 0.00 50 1010.3
20260507101100 62 0.0 0.0 0.00 0.00 0.00 51 1010.4
20260507100022 62 0.0 0.0 0.00 0.00 0.00 52 1010.2
20260507095024 63 0.0 0.0 0.00 0.00 0.00 51 1010.3
20260507094026 63 0.0 0.0 0.00 0.00 0.00 48 1010.4
20260507093043 62 0.0 0.0 0.00 0.00 0.00 50 1010.5
20260507092019 62 0.0 0.0 0.00 0.00 0.00 50 1010.3
20260507091015 62 0.0 0.0 0.00 0.00 0.00 50 1010.3
20260507090017 62 0.0 0.0 0.00 0.00 0.00 50 1010.3
20260507085032 62 0.0 0.0 0.00 0.00 0.00 51 1010.3
20260507084016 63 0.0 0.0 0.00 0.00 0.00 50 1010.5
20260507083018 63 0.0 0.0 0.00 0.00 0.00 49 1010.6
20260507082022 64 0.0 0.0 0.00 0.00 0.00 47 1010.7
20260507081024 64 0.0 0.0 0.00 0.00 0.00 47 1010.7
20260507080026 64 0.0 0.0 0.00 0.00 0.00 47 1010.4
20260507075028 64 0.0 0.0 0.00 0.00 0.00 45 1010.4
20260507074025 64 0.0 0.0 0.00 0.00 0.00 45 1010.5
20260507073048 65 0.0 0.0 0.00 0.00 0.00 45 1010.6
20260507072029 65 0.0 0.0 0.00 0.00 0.00 49 1010.4
20260507071033 66 0.0 0.0 0.00 0.00 0.00 45 1010.4
20260507070017 66 0.0 0.0 0.00 0.00 0.00 45 1010.4
20260507065039 66 0.0 0.0 0.00 0.00 0.00 43 1010.4
20260507064021 67 0.0 0.0 0.00 0.00 0.00 44 1010.4
20260507063017 66 0.0 0.0 0.00 0.00 0.00 45 1010.4
20260507062105 67 0.0 0.0 0.00 0.00 0.00 45 1010.3
20260507061027 67 0.0 0.0 0.00 0.00 0.00 43 1010.1
20260507060029 68 0.0 0.0 0.00 0.00 0.00 43 1010.2
20260507055032 68 0.0 0.0 0.00 0.00 0.00 44 1010.6
20260507054015 68 0.0 0.0 0.00 0.00 0.00 42 1010.7
20260507053018 68 0.0 0.0 0.00 0.00 0.00 41 1010.8
20260507052020 69 0.0 0.0 0.00 0.00 0.00 41 1010.5
20260507051023 69 0.0 0.0 0.00 0.00 0.00 42 1010.4
20260507050024 69 0.0 0.0 0.00 0.00 0.00 41 1010.3
20260507045027 70 0.0 0.0 0.00 0.00 0.00 40 1010.2
20260507044029 70 0.0 0.0 0.00 0.00 0.00 39 1010.1
20260507043031 71 0.0 0.0 0.00 0.00 0.00 38 1010.0
20260507042027 71 0.0 0.0 0.00 0.00 0.00 38 1010.0
20260507041017 72 0.0 0.0 0.00 0.00 0.00 37 1009.8
20260507040019 73 0.0 0.0 0.00 0.00 0.00 37 1009.6
20260507035016 74 0.0 0.0 0.00 0.00 0.00 36 1009.5
20260507034019 75 0.0 0.0 0.00 0.00 0.00 35 1009.4
20260507033021 76 0.0 0.0 0.00 0.00 0.00 34 1009.2
20260507032022 77 0.0 0.0 0.00 0.00 0.00 32 1009.2
20260507031025 78 0.0 0.0 0.00 0.00 0.00 31 1008.9
20260507030027 79 0.0 0.0 0.00 0.00 0.00 30 1008.8
20260507025029 79 0.0 0.0 0.00 0.00 0.00 30 1008.7
20260507024031 80 0.0 0.0 0.00 0.00 0.00 29 1008.8
20260507023015 80 0.0 0.0 0.00 0.00 0.00 29 1008.8
20260507022018 80 0.0 0.0 0.00 0.00 0.00 29 1008.5
20260507021020 81 82 1.7 5.2 0.00 0.00 0.00 29 1008.4
20260507020042 81 90 0.0 0.9 0.00 0.00 0.00 29 1008.4
20260507015024 82 0.0 0.9 0.00 0.00 0.00 29 1008.5
20260507014026 82 115 1.7 6.1 0.00 0.00 0.00 29 1008.4
20260507013022 82 84 3.5 6.1 0.00 0.00 0.00 29 1008.3
20260507012018 83 0.0 0.0 0.00 0.00 0.00 28 1008.5
20260507011033 84 0.0 0.0 0.00 0.00 0.00 27 1008.2
20260507010017 85 80 4.3 7.8 0.00 0.00 0.00 27 1008.4
20260507005019 86 0.0 0.9 0.00 0.00 0.00 27 1008.4
20260507004022 86 0.0 0.0 0.00 0.00 0.00 27 1008.3
20260507003024 87 0.0 0.0 0.00 0.00 0.00 27 1008.2
20260507002026 87 0.0 0.0 0.00 0.00 0.00 26 1008.2
20260507001028 88 94 4.3 7.0 0.00 0.00 0.00 26 1008.4
20260507000030 89 113 0.9 7.0 0.00 0.00 0.00 26 1008.4
20260506235033 88 113 0.0 2.6 0.00 0.00 0.00 26 1008.4
20260506234029 89 68 1.7 6.1 0.00 0.00 0.00 26 1008.4
20260506233111 89 113 0.0 4.3 0.00 0.00 0.00 26 1008.4
20260506232015 88 0.0 0.0 0.00 0.00 0.00 26 1008.6
20260506231018 88 84 2.6 5.2 0.00 0.00 0.00 26 1009.0
20260506230040 88 0.0 0.0 0.00 0.00 0.00 26 1008.8
20260506225022 88 113 0.9 6.1 0.00 0.00 0.00 26 1009.1
20260506224018 89 0.0 0.0 0.00 0.00 0.00 26 1009.2
20260506223026 88 0.0 0.0 0.00 0.00 0.00 27 1009.2
20260506222028 89 110 1.7 6.1 0.00 0.00 0.00 26 1009.3
20260506221030 88 23 1.7 4.3 0.00 0.00 0.00 26 1009.5
20260506220032 89 95 4.3 7.0 0.00 0.00 0.00 26 1009.7
20260506215036 89 98 1.7 7.0 0.00 0.00 0.00 26 1009.8
20260506214018 90 94 3.5 7.0 0.00 0.00 0.00 26 1009.9
20260506213021 90 95 2.6 5.2 0.00 0.00 0.00 26 1010.0
20260506212023 89 64 0.9 3.5 0.00 0.00 0.00 26 1010.2
20260506211025 90 0.0 0.0 0.00 0.00 0.00 26 1010.4
20260506210027 88 0.0 0.0 0.00 0.00 0.00 26 1010.6
20260506205024 87 0.0 0.0 0.00 0.00 0.00 26 1010.7
20260506204026 88 89 1.7 6.1 0.00 0.00 0.00 26 1010.8
20260506203028 88 113 0.9 4.3 0.00 0.00 0.00 26 1010.9
20260506202024 88 84 3.5 5.2 0.00 0.00 0.00 26 1011.1
20260506201020 88 97 1.7 5.2 0.00 0.00 0.00 27 1011.1
20260506200016 86 349 0.0 3.5 0.00 0.00 0.00 27 1011.2
20260506195019 86 71 2.6 7.0 0.00 0.00 0.00 27 1011.5
20260506194021 86 338 0.9 3.5 0.00 0.00 0.00 27 1011.6
20260506193023 86 78 0.9 2.6 0.00 0.00 0.00 28 1011.5
20260506192025 85 115 1.7 4.3 0.00 0.00 0.00 29 1011.4
20260506191023 85 0.0 0.0 0.00 0.00 0.00 29 1011.7
20260506190024 85 87 3.5 6.1 0.00 0.00 0.00 28 1012.2
20260506185026 86 97 2.6 8.7 0.00 0.00 0.00 29 1012.0
20260506184028 84 102 0.9 3.5 0.00 0.00 0.00 29 1012.1
20260506183026 84 0.0 0.0 0.00 0.00 0.00 29 1012.3
20260506182022 84 0 0.0 1.7 0.00 0.00 0.00 31 1012.5
20260506181044 83 79 1.7 7.0 0.00 0.00 0.00 31 1012.5
20260506180027 82 95 2.6 4.3 0.00 0.00 0.00 32 1012.5
20260506175029 81 113 0.9 4.3 0.00 0.00 0.00 32 1012.5
20260506174026 80 23 0.0 0.9 0.00 0.00 0.00 33 1012.6
20260506173022 80 97 1.7 4.3 0.00 0.00 0.00 34 1012.5
20260506172018 80 0.0 0.0 0.00 0.00 0.00 35 1012.6
20260506171015 79 0.0 0.0 0.00 0.00 0.00 35 1012.6
20260506170029 79 106 1.7 5.2 0.00 0.00 0.00 34 1012.7
20260506165032 78 76 2.6 5.2 0.00 0.00 0.00 35 1012.5
20260506164029 77 0.0 0.0 0.00 0.00 0.00 36 1012.4
20260506163031 76 0.0 0.0 0.00 0.00 0.00 36 1012.4
20260506162033 76 0.0 0.0 0.00 0.00 0.00 37 1012.2
20260506161017 75 0.0 0.0 0.00 0.00 0.00 37 1012.5
20260506160032 74 0.0 0.0 0.00 0.00 0.00 38 1012.6
20260506155016 73 0.0 0.0 0.00 0.00 0.00 39 1012.5
20260506154038 72 0.0 0.0 0.00 0.00 0.00 40 1012.6
20260506153035 71 0.0 0.0 0.00 0.00 0.00 41 1012.8
20260506152017 71 0.0 0.0 0.00 0.00 0.00 41 1012.7
20260506151019 70 0.0 0.0 0.00 0.00 0.00 42 1012.6
20260506150022 69 0.0 0.0 0.00 0.00 0.00 43 1012.4
20260506145024 68 0.0 0.0 0.00 0.00 0.00 45 1012.4
20260506144020 68 0.0 0.0 0.00 0.00 0.00 46 1012.4